Time;durP1;ratioP1;P1;durP2;ratioP2;P2;SDS_P1;SDS_P2;PMS_P1;PMS_P2;Temp;Humidity;BMP_temperature;BMP_pressure;BME280_temperature;BME280_humidity;BME280_pressure;Samples;Min_cycle;Max_cycle;Signal;HPM_P1;HPM_P2
2023/06/04 00:00:43;;;;;;;2.03;0.50;;;13.30;99.90;;;;;;4958634;28;20053;-33
2023/06/04 00:03:08;;;;;;;1.73;0.63;;;13.20;99.90;;;;;;4958756;28;20125;-33
2023/06/04 00:05:34;;;;;;;3.35;0.80;;;13.20;99.90;;;;;;4958756;28;20059;-33
2023/06/04 00:08:00;;;;;;;2.10;0.70;;;13.20;99.90;;;;;;4957050;28;20066;-33
2023/06/04 00:10:25;;;;;;;2.13;0.60;;;13.10;99.90;;;;;;4960228;28;20147;-34
2023/06/04 00:12:51;;;;;;;2.65;0.70;;;13.10;99.90;;;;;;4962105;28;20077;-34
2023/06/04 00:15:17;;;;;;;2.97;0.70;;;13.10;99.90;;;;;;4966216;28;20057;-34
2023/06/04 00:17:44;;;;;;;1.45;0.75;;;13.10;99.90;;;;;;4955392;28;20507;-34
2023/06/04 00:20:10;;;;;;;2.72;0.60;;;13.00;99.90;;;;;;4959089;28;20061;-34
2023/06/04 00:22:36;;;;;;;5.75;1.00;;;13.00;99.90;;;;;;4957568;28;20047;-34
2023/06/04 00:25:02;;;;;;;1.10;0.57;;;13.00;99.90;;;;;;4960614;28;20101;-34
2023/06/04 00:27:28;;;;;;;2.17;0.77;;;13.00;99.90;;;;;;4954826;28;20058;-34
2023/06/04 00:29:54;;;;;;;3.10;0.60;;;12.90;99.90;;;;;;4956273;28;20412;-34
2023/06/04 00:32:20;;;;;;;4.53;1.10;;;12.80;99.90;;;;;;4959176;28;20050;-34
2023/06/04 00:34:57;;;;;;;1.63;0.63;;;12.80;99.90;;;;;;4953971;28;20051;-33
2023/06/04 00:37:24;;;;;;;2.63;0.70;;;12.80;99.90;;;;;;4954265;28;20114;-34
2023/06/04 00:39:50;;;;;;;2.47;0.63;;;12.70;99.90;;;;;;4958922;28;20124;-34
2023/06/04 00:42:17;;;;;;;1.83;0.80;;;12.70;99.90;;;;;;4954874;28;20051;-34
2023/06/04 00:44:44;;;;;;;3.83;0.90;;;12.60;99.90;;;;;;4955167;28;20138;-34
2023/06/04 00:47:15;;;;;;;2.88;0.77;;;12.60;99.90;;;;;;4956827;28;20047;-34
2023/06/04 00:49:43;;;;;;;1.67;0.80;;;12.50;99.90;;;;;;4956669;28;20043;-34
2023/06/04 00:52:10;;;;;;;2.65;0.60;;;12.50;99.90;;;;;;4958848;28;20100;-34
2023/06/04 00:54:37;;;;;;;1.83;0.70;;;12.50;99.90;;;;;;4963301;28;20698;-34
2023/06/04 00:57:04;;;;;;;4.22;1.08;;;12.50;99.90;;;;;;4966811;28;20039;-34
2023/06/04 00:59:32;;;;;;;2.55;0.88;;;12.40;99.90;;;;;;4959246;28;20051;-34
2023/06/04 01:02:19;;;;;;;1.67;0.68;;;12.40;99.90;;;;;;4962241;28;20512;-35
2023/06/04 01:04:54;;;;;;;4.03;0.80;;;12.40;99.90;;;;;;4960368;28;20054;-34
2023/06/04 01:07:21;;;;;;;2.05;0.70;;;12.40;99.90;;;;;;4956015;28;20114;-34
2023/06/04 01:09:47;;;;;;;3.75;1.35;;;12.30;99.90;;;;;;4957470;28;20050;-34
2023/06/04 01:12:13;;;;;;;2.80;1.38;;;12.20;99.90;;;;;;4958934;28;20039;-34
2023/06/04 01:14:39;;;;;;;3.60;1.00;;;12.20;99.90;;;;;;4958957;28;20066;-34
2023/06/04 01:17:36;;;;;;;2.83;0.88;;;12.20;99.90;;;;;;4941071;28;20042;-34
2023/06/04 01:20:33;;;;;;;3.05;1.08;;;12.20;99.90;;;;;;4956586;28;20051;-34
2023/06/04 01:23:24;;;;;;;3.47;0.77;;;12.10;99.90;;;;;;4957334;28;20499;-33
2023/06/04 01:25:50;;;;;;;2.45;0.80;;;12.00;99.90;;;;;;4951649;28;20059;-34
2023/06/04 01:28:17;;;;;;;2.58;1.08;;;12.00;99.90;;;;;;4959266;28;20133;-34
2023/06/04 01:30:47;;;;;;;3.00;0.90;;;12.00;99.90;;;;;;4957478;28;20511;-34
2023/06/04 01:33:18;;;;;;;5.30;0.90;;;12.00;99.90;;;;;;4960125;28;20081;-34
2023/06/04 01:35:44;;;;;;;6.03;1.60;;;12.00;99.90;;;;;;4952806;28;20055;-34
2023/06/04 01:38:10;;;;;;;5.43;1.08;;;11.90;99.90;;;;;;4960844;28;20539;-34
2023/06/04 01:40:36;;;;;;;4.90;1.10;;;11.90;99.90;;;;;;4951209;28;20083;-34
2023/06/04 01:43:03;;;;;;;7.75;1.35;;;11.90;99.90;;;;;;4955374;28;20059;-33
2023/06/04 01:45:29;;;;;;;5.88;1.40;;;11.90;99.90;;;;;;4959462;28;20410;-34
2023/06/04 01:47:56;;;;;;;3.33;1.10;;;11.80;99.90;;;;;;4961211;28;20046;-34
2023/06/04 01:50:22;;;;;;;4.15;1.17;;;11.80;99.90;;;;;;4953658;28;20109;-34
2023/06/04 01:52:49;;;;;;;4.15;1.10;;;11.80;99.90;;;;;;4963158;28;20050;-34
2023/06/04 01:55:16;;;;;;;2.72;1.05;;;11.70;99.90;;;;;;4958265;28;20093;-34
2023/06/04 01:57:43;;;;;;;6.32;1.45;;;11.70;99.90;;;;;;4960993;28;20042;-34
2023/06/04 02:00:11;;;;;;;3.80;1.58;;;11.70;99.90;;;;;;4954803;28;20054;-33
2023/06/04 02:02:37;;;;;;;5.53;1.17;;;11.70;99.90;;;;;;4959058;28;20153;-34
2023/06/04 02:05:08;;;;;;;2.90;1.50;;;11.60;99.90;;;;;;4963256;28;20512;-34
2023/06/04 02:07:42;;;;;;;3.28;1.38;;;11.70;99.90;;;;;;4952130;28;20585;-34
2023/06/04 02:10:09;;;;;;;5.28;1.35;;;11.60;99.90;;;;;;4955475;28;20047;-34
2023/06/04 02:12:52;;;;;;;3.25;1.20;;;11.60;99.90;;;;;;4965017;28;20050;-34
2023/06/04 02:15:17;;;;;;;4.72;1.33;;;11.60;99.90;;;;;;4958447;28;20047;-34
2023/06/04 02:17:45;;;;;;;5.45;1.17;;;11.60;99.90;;;;;;4962788;28;20049;-34
2023/06/04 02:20:11;;;;;;;5.25;1.40;;;11.50;99.90;;;;;;4962025;28;20133;-34
2023/06/04 02:22:37;;;;;;;4.32;1.90;;;11.50;99.90;;;;;;4958595;28;20125;-34
2023/06/04 02:25:05;;;;;;;3.63;1.30;;;11.50;99.90;;;;;;4948790;28;20515;-34
2023/06/04 02:27:30;;;;;;;3.58;1.38;;;11.40;99.90;;;;;;4956848;28;20059;-34
2023/06/04 02:29:56;;;;;;;4.35;1.60;;;11.50;99.90;;;;;;4956036;28;20579;-34
2023/06/04 02:32:21;;;;;;;6.35;2.05;;;11.40;99.90;;;;;;4959120;28;20520;-34
2023/06/04 02:34:48;;;;;;;5.30;1.67;;;11.40;99.90;;;;;;4961002;28;20059;-34
2023/06/04 02:37:14;;;;;;;4.75;1.50;;;11.40;99.90;;;;;;4961114;28;20142;-34
2023/06/04 02:39:40;;;;;;;3.85;1.70;;;11.40;99.90;;;;;;4958249;28;20147;-34
2023/06/04 02:42:06;;;;;;;4.95;2.10;;;11.30;99.90;;;;;;4953896;28;20396;-34
2023/06/04 02:44:32;;;;;;;3.95;1.45;;;11.30;99.90;;;;;;4959587;28;20055;-34
2023/06/04 02:46:58;;;;;;;3.90;1.60;;;11.30;99.90;;;;;;4960316;28;20405;-34
2023/06/04 02:49:23;;;;;;;6.60;1.92;;;11.20;99.90;;;;;;4958209;28;20393;-34
2023/06/04 02:51:49;;;;;;;5.85;2.00;;;11.30;99.90;;;;;;4959917;28;20050;-34
2023/06/04 02:54:16;;;;;;;4.63;1.90;;;11.20;99.90;;;;;;4960387;28;20059;-34
2023/06/04 02:56:43;;;;;;;4.22;1.30;;;11.20;99.90;;;;;;4954068;28;20409;-35
2023/06/04 02:59:10;;;;;;;4.45;1.60;;;11.20;99.90;;;;;;4959486;28;20122;-34
2023/06/04 03:01:36;;;;;;;4.72;1.73;;;11.10;99.90;;;;;;4958493;28;20050;-34
2023/06/04 03:04:04;;;;;;;6.50;1.77;;;11.10;99.90;;;;;;4957886;28;20055;-34
2023/06/04 03:06:32;;;;;;;6.75;1.83;;;11.10;99.90;;;;;;4960924;28;20493;-34
2023/06/04 03:08:58;;;;;;;6.53;2.15;;;11.10;99.90;;;;;;4958188;28;20055;-34
2023/06/04 03:11:23;;;;;;;5.53;1.98;;;11.10;99.90;;;;;;4956737;28;20425;-34
2023/06/04 03:13:49;;;;;;;7.05;2.30;;;11.10;99.90;;;;;;4951925;28;20051;-34
2023/06/04 03:16:15;;;;;;;8.98;2.30;;;11.10;99.90;;;;;;4959121;28;20094;-34
2023/06/04 03:18:42;;;;;;;7.60;2.20;;;11.10;99.90;;;;;;4958246;28;20642;-34
2023/06/04 03:21:08;;;;;;;8.18;2.15;;;11.10;99.90;;;;;;4955300;28;20393;-34
2023/06/04 03:23:34;;;;;;;6.18;2.28;;;11.00;99.90;;;;;;4955742;28;20066;-34
2023/06/04 03:26:04;;;;;;;5.55;1.98;;;11.00;99.90;;;;;;4952768;28;20059;-34
2023/06/04 03:28:31;;;;;;;7.78;2.40;;;11.00;99.90;;;;;;4952138;28;20054;-34
2023/06/04 03:30:56;;;;;;;7.22;2.17;;;11.00;99.90;;;;;;4955441;28;20054;-34
2023/06/04 03:33:22;;;;;;;6.85;2.38;;;10.90;99.90;;;;;;4957057;28;20175;-34
2023/06/04 03:35:48;;;;;;;5.82;1.60;;;11.00;99.90;;;;;;4961170;28;20497;-35
2023/06/04 03:38:15;;;;;;;8.98;2.25;;;11.00;99.90;;;;;;4959362;28;20129;-34
2023/06/04 03:40:41;;;;;;;6.88;2.30;;;11.00;99.90;;;;;;4961989;28;20177;-34
2023/06/04 03:43:06;;;;;;;8.75;2.30;;;10.90;99.90;;;;;;4961316;28;20177;-34
2023/06/04 03:45:32;;;;;;;8.00;2.85;;;10.90;99.90;;;;;;4959646;28;20047;-34
2023/06/04 03:47:58;;;;;;;8.93;2.08;;;10.90;99.90;;;;;;4960058;28;20054;-34
2023/06/04 03:50:23;;;;;;;9.95;2.85;;;10.90;99.90;;;;;;4957790;28;20130;-34
2023/06/04 03:52:50;;;;;;;6.97;2.50;;;10.90;99.90;;;;;;4959708;28;20051;-34
2023/06/04 03:55:15;;;;;;;6.30;2.05;;;10.90;99.90;;;;;;4964980;28;20059;-35
2023/06/04 03:57:41;;;;;;;8.27;2.30;;;10.90;99.90;;;;;;4959665;28;20061;-34
2023/06/04 04:00:11;;;;;;;9.40;3.92;;;10.90;99.90;;;;;;4960513;28;20051;-34
2023/06/04 04:02:38;;;;;;;6.07;2.08;;;10.90;99.90;;;;;;4955309;28;20043;-34
2023/06/04 04:05:04;;;;;;;6.97;1.90;;;10.90;99.90;;;;;;4965161;28;20058;-34
2023/06/04 04:07:29;;;;;;;4.50;2.25;;;10.90;99.90;;;;;;4961621;28;20046;-34
2023/06/04 04:09:55;;;;;;;8.05;2.58;;;10.90;99.90;;;;;;4961619;28;20050;-34
2023/06/04 04:12:21;;;;;;;3.97;1.90;;;10.90;99.90;;;;;;4966566;28;20057;-34
2023/06/04 04:14:47;;;;;;;4.80;2.00;;;10.90;99.90;;;;;;4959119;28;20055;-34
2023/06/04 04:17:14;;;;;;;5.40;2.30;;;11.00;99.90;;;;;;4965384;28;20046;-34
2023/06/04 04:19:39;;;;;;;8.98;2.53;;;11.00;99.90;;;;;;4964040;28;20043;-34
2023/06/04 04:22:06;;;;;;;6.82;2.25;;;11.00;99.90;;;;;;4959482;28;20058;-34
2023/06/04 04:24:34;;;;;;;8.50;2.38;;;11.10;99.90;;;;;;4962038;28;20612;-34
2023/06/04 04:27:00;;;;;;;7.68;2.33;;;11.10;99.90;;;;;;4961042;28;20039;-35
2023/06/04 04:29:27;;;;;;;9.05;2.63;;;11.10;99.90;;;;;;4963827;28;20050;-34
2023/06/04 04:31:57;;;;;;;7.03;2.10;;;11.20;99.90;;;;;;4957756;28;20519;-34
2023/06/04 04:34:25;;;;;;;5.10;2.35;;;11.20;99.90;;;;;;4963900;28;20137;-34
2023/06/04 04:36:56;;;;;;;4.40;2.13;;;11.20;99.90;;;;;;4959740;28;20165;-34
2023/06/04 04:39:25;;;;;;;7.93;2.35;;;11.30;99.90;;;;;;4958462;28;20054;-34
2023/06/04 04:41:51;;;;;;;6.68;2.22;;;11.30;99.90;;;;;;4958056;28;20058;-34
2023/06/04 04:44:17;;;;;;;6.80;1.92;;;11.30;99.90;;;;;;4958896;28;20115;-34
2023/06/04 04:46:43;;;;;;;5.38;1.90;;;11.40;99.90;;;;;;4965685;28;20059;-35
2023/06/04 04:49:09;;;;;;;5.82;1.83;;;11.40;99.90;;;;;;4959530;28;20059;-34
2023/06/04 04:51:35;;;;;;;8.30;1.77;;;11.50;99.90;;;;;;4960330;28;20047;-33
2023/06/04 04:54:01;;;;;;;6.40;2.20;;;11.50;99.90;;;;;;4964345;28;20058;-36
2023/06/04 04:56:27;;;;;;;7.03;2.17;;;11.60;99.90;;;;;;4961989;28;20074;-34
2023/06/04 04:58:54;;;;;;;5.90;1.95;;;11.70;99.90;;;;;;4962137;28;20059;-34
2023/06/04 05:01:20;;;;;;;4.72;1.65;;;11.70;99.90;;;;;;4962189;28;20046;-34
2023/06/04 05:03:45;;;;;;;5.53;1.90;;;11.70;99.90;;;;;;4961852;28;20059;-34
2023/06/04 05:06:11;;;;;;;7.72;1.70;;;11.80;99.90;;;;;;4965442;28;20054;-34
2023/06/04 05:08:37;;;;;;;9.18;1.42;;;11.90;99.90;;;;;;4965976;28;20065;-34
2023/06/04 05:11:02;;;;;;;6.90;1.90;;;11.90;99.90;;;;;;4963800;28;20539;-34
2023/06/04 05:13:28;;;;;;;5.25;1.90;;;12.00;99.90;;;;;;4964560;28;20542;-35
2023/06/04 05:15:53;;;;;;;5.28;1.60;;;12.00;99.90;;;;;;4960688;28;20065;-34
2023/06/04 05:18:28;;;;;;;8.40;2.35;;;12.10;99.90;;;;;;4963840;28;20051;-34
2023/06/04 05:20:59;;;;;;;5.60;1.95;;;12.10;99.90;;;;;;4955382;28;20511;-35
2023/06/04 05:23:26;;;;;;;6.43;2.20;;;12.20;99.90;;;;;;4961191;28;20054;-35
2023/06/04 05:25:52;;;;;;;7.32;1.80;;;12.30;99.90;;;;;;4960703;28;20059;-34
2023/06/04 05:28:18;;;;;;;7.68;2.22;;;12.30;99.90;;;;;;4959581;28;20063;-34
2023/06/04 05:30:44;;;;;;;6.57;3.00;;;12.40;99.90;;;;;;4959216;28;20093;-34
2023/06/04 05:33:17;;;;;;;6.47;2.00;;;12.40;99.90;;;;;;4962991;28;20054;-34
2023/06/04 05:35:48;;;;;;;6.30;2.45;;;12.50;99.90;;;;;;4962934;28;20050;-34
2023/06/04 05:38:17;;;;;;;7.53;2.22;;;12.50;99.90;;;;;;4955199;28;20043;-34
2023/06/04 05:40:43;;;;;;;4.28;2.30;;;12.60;99.90;;;;;;4960725;28;20057;-34
2023/06/04 05:43:09;;;;;;;6.18;1.58;;;12.70;99.90;;;;;;4960686;28;20168;-34
2023/06/04 05:45:35;;;;;;;9.57;2.72;;;12.80;99.90;;;;;;4962645;28;20063;-34
2023/06/04 05:48:00;;;;;;;5.32;2.05;;;12.90;99.90;;;;;;4963820;28;20059;-34
2023/06/04 05:50:26;;;;;;;6.95;1.98;;;12.90;99.90;;;;;;4956727;28;20051;-34
2023/06/04 05:52:52;;;;;;;9.88;2.22;;;13.00;99.90;;;;;;4955608;28;20094;-34
2023/06/04 05:55:18;;;;;;;5.57;1.80;;;13.10;99.90;;;;;;4962773;28;20581;-34
2023/06/04 05:57:43;;;;;;;7.28;2.55;;;13.20;99.90;;;;;;4959228;28;20050;-34
2023/06/04 06:00:10;;;;;;;5.00;2.60;;;13.30;99.90;;;;;;4940062;28;20055;-34
2023/06/04 06:02:37;;;;;;;5.97;1.90;;;13.30;99.90;;;;;;4951055;28;20050;-34
2023/06/04 06:05:03;;;;;;;7.68;3.25;;;13.40;99.90;;;;;;4958642;28;20158;-35
2023/06/04 06:07:29;;;;;;;5.88;2.30;;;13.50;99.90;;;;;;4961171;28;20058;-34
2023/06/04 06:09:55;;;;;;;11.88;2.95;;;13.50;99.90;;;;;;4956883;28;20046;-34
2023/06/04 06:12:20;;;;;;;6.15;1.70;;;13.50;99.90;;;;;;4961458;28;20073;-34
2023/06/04 06:14:46;;;;;;;5.38;2.22;;;13.60;99.90;;;;;;4960485;28;20984;-34
2023/06/04 06:17:12;;;;;;;6.82;2.20;;;13.70;99.90;;;;;;4960379;28;20062;-34
2023/06/04 06:19:37;;;;;;;5.72;1.77;;;13.80;99.90;;;;;;4953440;28;20065;-35
2023/06/04 06:22:04;;;;;;;9.20;2.35;;;13.80;99.90;;;;;;4957533;28;20054;-34
2023/06/04 06:24:30;;;;;;;4.90;1.75;;;13.90;99.90;;;;;;4960267;28;20492;-34
2023/06/04 06:26:55;;;;;;;6.82;1.80;;;14.00;99.90;;;;;;4956659;28;20174;-35
2023/06/04 06:29:21;;;;;;;9.43;1.95;;;14.00;99.90;;;;;;4965173;28;20503;-35
2023/06/04 06:31:47;;;;;;;6.93;1.80;;;14.10;99.90;;;;;;4957928;28;20520;-35
2023/06/04 06:34:13;;;;;;;5.15;1.92;;;14.20;99.90;;;;;;4961652;28;20523;-35
2023/06/04 06:36:39;;;;;;;6.20;1.55;;;14.30;99.90;;;;;;4963739;28;20050;-35
2023/06/04 06:39:04;;;;;;;8.55;1.80;;;14.40;99.90;;;;;;4959986;28;20497;-34
2023/06/04 06:41:33;;;;;;;4.57;1.50;;;14.50;99.90;;;;;;4958200;28;20521;-35
2023/06/04 06:43:59;;;;;;;3.42;1.30;;;14.50;99.90;;;;;;4961196;28;20058;-35
2023/06/04 06:46:25;;;;;;;6.03;1.60;;;14.70;99.90;;;;;;4957410;28;20103;-35
2023/06/04 06:48:50;;;;;;;6.78;2.83;;;14.70;99.90;;;;;;4952218;28;20492;-34
2023/06/04 06:51:16;;;;;;;3.70;1.15;;;14.80;99.90;;;;;;4959036;28;20054;-35
2023/06/04 06:53:43;;;;;;;5.13;1.65;;;14.90;99.90;;;;;;4952337;28;20054;-34
2023/06/04 06:56:08;;;;;;;6.93;1.40;;;15.00;99.90;;;;;;4949801;28;20059;-35
2023/06/04 06:58:34;;;;;;;5.38;1.50;;;15.10;99.90;;;;;;4952745;28;20073;-34
2023/06/04 07:01:00;;;;;;;8.25;1.63;;;15.20;99.90;;;;;;4947872;28;20063;-35
2023/06/04 07:03:26;;;;;;;6.22;1.65;;;15.30;99.90;;;;;;4940022;28;20402;-35
2023/06/04 07:05:52;;;;;;;3.83;1.55;;;15.40;99.90;;;;;;4933871;28;20051;-35
2023/06/04 07:08:17;;;;;;;3.92;1.40;;;15.50;99.90;;;;;;4942335;28;20055;-35
2023/06/04 07:10:43;;;;;;;6.93;1.48;;;15.50;99.90;;;;;;4930561;28;20080;-35
2023/06/04 07:13:09;;;;;;;4.80;1.40;;;15.60;99.90;;;;;;4939552;28;20063;-34
2023/06/04 07:15:35;;;;;;;5.05;1.50;;;15.60;99.90;;;;;;4940530;28;20131;-35
2023/06/04 07:18:00;;;;;;;6.43;1.60;;;15.70;99.90;;;;;;4940177;28;20150;-35
2023/06/04 07:20:26;;;;;;;3.67;1.48;;;15.80;99.90;;;;;;4946261;28;20420;-35
2023/06/04 07:22:52;;;;;;;6.18;1.60;;;15.90;99.90;;;;;;4940896;28;20109;-35
2023/06/04 07:25:17;;;;;;;8.18;1.67;;;16.00;99.90;;;;;;4939334;28;20687;-35
2023/06/04 07:27:43;;;;;;;8.30;2.08;;;16.10;99.90;;;;;;4942908;28;20056;-35
2023/06/04 07:30:10;;;;;;;4.18;1.33;;;16.20;99.90;;;;;;4942849;28;20047;-35
2023/06/04 07:32:35;;;;;;;6.10;1.55;;;16.30;99.90;;;;;;4940964;28;20050;-35
2023/06/04 07:35:02;;;;;;;8.30;2.15;;;16.40;99.90;;;;;;4937314;28;20531;-34
2023/06/04 07:37:28;;;;;;;4.10;1.67;;;16.50;99.90;;;;;;4939086;28;20067;-35
2023/06/04 07:39:54;;;;;;;5.45;1.50;;;16.60;99.90;;;;;;4931920;28;20066;-34
2023/06/04 07:42:19;;;;;;;4.88;1.70;;;16.60;99.90;;;;;;4940957;28;20047;-35
2023/06/04 07:44:45;;;;;;;2.97;0.90;;;16.60;99.90;;;;;;4942890;28;20047;-35
2023/06/04 07:47:11;;;;;;;3.70;1.20;;;16.70;99.90;;;;;;4938431;28;20055;-35
2023/06/04 07:49:36;;;;;;;4.53;1.15;;;16.80;99.90;;;;;;4944342;28;20047;-35
2023/06/04 07:52:02;;;;;;;5.30;1.48;;;17.00;99.90;;;;;;4940434;28;20067;-35
2023/06/04 07:54:27;;;;;;;4.68;1.17;;;17.10;99.90;;;;;;4943730;28;20896;-35
2023/06/04 07:56:55;;;;;;;3.88;0.90;;;17.20;99.90;;;;;;4944328;28;20497;-35
2023/06/04 07:59:22;;;;;;;7.65;0.93;;;17.30;99.90;;;;;;4941297;28;20189;-35
2023/06/04 08:01:50;;;;;;;5.00;0.90;;;17.30;99.90;;;;;;4936383;28;20216;-35
2023/06/04 08:04:16;;;;;;;5.68;1.00;;;17.50;99.90;;;;;;4954876;28;20492;-35
2023/06/04 08:06:42;;;;;;;6.68;1.08;;;17.70;99.90;;;;;;4952986;28;20059;-35
2023/06/04 08:09:09;;;;;;;2.78;0.95;;;17.80;99.90;;;;;;4950885;28;20050;-35
2023/06/04 08:11:35;;;;;;;2.58;1.23;;;17.80;99.90;;;;;;4950270;28;20444;-35
2023/06/04 08:14:01;;;;;;;2.53;0.80;;;17.90;99.90;;;;;;4952582;28;20047;-34
2023/06/04 08:16:27;;;;;;;4.75;1.30;;;18.00;99.90;;;;;;4952473;28;20078;-35
2023/06/04 08:18:52;;;;;;;5.18;1.05;;;18.10;99.90;;;;;;4951654;28;20603;-35
2023/06/04 08:21:28;;;;;;;3.25;0.95;;;18.10;99.90;;;;;;4953028;28;20532;-35
2023/06/04 08:23:55;;;;;;;2.15;0.50;;;18.10;99.90;;;;;;4952352;28;20051;-34
2023/06/04 08:26:21;;;;;;;2.95;0.90;;;18.10;99.90;;;;;;4954374;28;20047;-35
2023/06/04 08:28:50;;;;;;;2.95;0.70;;;18.20;99.90;;;;;;4963479;28;20089;-35
2023/06/04 08:31:16;;;;;;;2.85;0.82;;;18.30;99.90;;;;;;4955455;28;20050;-35
2023/06/04 08:33:45;;;;;;;2.42;0.77;;;18.40;99.90;;;;;;4958461;28;20142;-34
2023/06/04 08:36:11;;;;;;;3.35;0.80;;;18.40;99.90;;;;;;4957619;28;20141;-35
2023/06/04 08:38:36;;;;;;;2.65;0.65;;;18.50;99.90;;;;;;4963923;28;20493;-35
2023/06/04 08:41:29;;;;;;;2.00;0.70;;;18.60;99.90;;;;;;4950873;28;20130;-34
2023/06/04 08:43:57;;;;;;;4.95;1.13;;;18.80;99.90;;;;;;4950639;28;20042;-34
2023/06/04 08:46:23;;;;;;;2.97;0.85;;;18.90;99.90;;;;;;4958750;28;20526;-35
2023/06/04 08:48:50;;;;;;;5.15;0.90;;;18.90;99.90;;;;;;4960518;28;20084;-35
2023/06/04 08:51:16;;;;;;;2.10;0.70;;;19.10;99.90;;;;;;4963383;28;20138;-35
2023/06/04 08:53:43;;;;;;;7.00;0.80;;;19.20;99.90;;;;;;4955326;28;20054;-35
2023/06/04 08:56:09;;;;;;;3.72;0.80;;;19.40;99.90;;;;;;4955265;28;20051;-34
2023/06/04 08:58:36;;;;;;;2.90;0.60;;;19.50;99.90;;;;;;4961452;28;20058;-35
2023/06/04 09:01:02;;;;;;;4.93;1.00;;;19.70;99.90;;;;;;4955356;28;20062;-34
2023/06/04 09:03:32;;;;;;;2.45;0.80;;;19.70;99.90;;;;;;4948756;28;20054;-35
2023/06/04 09:06:00;;;;;;;2.65;0.80;;;19.70;99.90;;;;;;4948694;28;20716;-35
2023/06/04 09:08:27;;;;;;;3.53;0.88;;;19.80;99.90;;;;;;4950788;28;20137;-35
2023/06/04 09:10:54;;;;;;;1.73;0.52;;;19.90;99.90;;;;;;4952933;28;20058;-35
2023/06/04 09:13:26;;;;;;;2.00;0.70;;;20.00;99.90;;;;;;4951904;28;20508;-35
2023/06/04 09:16:02;;;;;;;3.25;0.70;;;20.00;99.90;;;;;;4952612;28;20453;-35
2023/06/04 09:18:29;;;;;;;1.88;0.60;;;20.10;99.90;;;;;;4951101;28;20353;-35
2023/06/04 09:21:02;;;;;;;2.97;0.65;;;20.20;99.90;;;;;;4953670;28;20483;-35
2023/06/04 09:23:28;;;;;;;2.95;0.50;;;20.40;99.90;;;;;;4953703;28;20413;-35
2023/06/04 09:25:54;;;;;;;1.58;0.50;;;20.50;99.90;;;;;;4952541;28;20059;-35
2023/06/04 09:28:20;;;;;;;1.83;0.47;;;20.50;99.90;;;;;;4950554;28;20073;-35
2023/06/04 09:30:55;;;;;;;1.63;0.40;;;20.60;99.90;;;;;;4955742;28;20051;-35
2023/06/04 09:33:20;;;;;;;2.88;0.68;;;20.80;99.90;;;;;;4953005;28;20120;-35
2023/06/04 09:35:59;;;;;;;5.03;0.50;;;20.90;99.90;;;;;;4936583;28;20540;-35
2023/06/04 09:38:38;;;;;;;4.00;0.60;;;20.90;99.90;;;;;;4955799;28;20671;-35
2023/06/04 09:41:04;;;;;;;5.03;0.50;;;20.90;99.90;;;;;;4956351;28;20084;-35
2023/06/04 09:43:32;;;;;;;2.90;0.70;;;21.00;99.90;;;;;;4941352;28;20137;-35
2023/06/04 09:46:08;;;;;;;2.42;0.68;;;21.10;99.90;;;;;;4941598;28;20501;-35
2023/06/04 09:48:34;;;;;;;5.82;0.82;;;21.20;99.90;;;;;;4955686;28;20503;-35
2023/06/04 09:51:10;;;;;;;5.50;0.70;;;21.20;99.90;;;;;;4948691;28;20089;-35
2023/06/04 09:53:37;;;;;;;2.10;0.60;;;21.20;99.90;;;;;;4951602;28;20180;-34
2023/06/04 09:56:03;;;;;;;2.88;0.60;;;21.20;99.90;;;;;;4953323;28;20059;-35
2023/06/04 09:58:30;;;;;;;1.20;0.50;;;21.30;99.90;;;;;;4948641;28;20505;-35
2023/06/04 10:01:00;;;;;;;1.73;0.60;;;21.30;99.90;;;;;;4955220;28;20081;-34
2023/06/04 10:03:32;;;;;;;2.63;0.63;;;21.40;99.90;;;;;;4948512;28;20062;-35
2023/06/04 10:06:00;;;;;;;2.45;0.50;;;21.40;99.90;;;;;;4951288;28;20089;-35
2023/06/04 10:08:26;;;;;;;3.80;0.60;;;21.50;99.90;;;;;;4954063;28;20213;-35
2023/06/04 10:10:58;;;;;;;2.35;0.50;;;21.60;99.90;;;;;;4953105;28;20058;-35
2023/06/04 10:13:28;;;;;;;2.65;0.80;;;21.80;99.90;;;;;;4952079;28;20055;-34
2023/06/04 10:15:56;;;;;;;2.20;0.50;;;21.90;99.90;;;;;;4951230;28;20090;-35
2023/06/04 10:18:22;;;;;;;2.33;0.80;;;22.10;99.90;;;;;;4950263;28;20062;-35
2023/06/04 10:20:47;;;;;;;2.92;0.80;;;22.10;99.90;;;;;;4950924;28;20493;-35
2023/06/04 10:23:14;;;;;;;2.50;0.73;;;22.10;99.90;;;;;;4950955;28;20043;-35
2023/06/04 10:25:40;;;;;;;1.63;0.70;;;22.10;99.90;;;;;;4953646;28;20428;-35
2023/06/04 10:28:05;;;;;;;2.90;0.68;;;22.00;99.90;;;;;;4949240;28;20047;-35
2023/06/04 10:30:31;;;;;;;2.83;0.60;;;22.00;99.90;;;;;;4953720;28;20051;-35
2023/06/04 10:32:58;;;;;;;1.25;0.60;;;22.10;99.90;;;;;;4957811;28;20508;-35
2023/06/04 10:35:33;;;;;;;3.63;0.70;;;22.30;99.90;;;;;;4956422;28;20042;-35
2023/06/04 10:38:14;;;;;;;3.63;0.70;;;22.30;99.90;;;;;;4955438;28;20043;-35
2023/06/04 10:40:40;;;;;;;2.53;0.80;;;22.40;99.90;;;;;;4951392;28;20105;-35
2023/06/04 10:43:10;;;;;;;2.20;0.50;;;22.40;99.90;;;;;;4953824;28;20050;-35
2023/06/04 10:45:37;;;;;;;1.65;0.43;;;22.50;99.90;;;;;;4954723;28;20125;-35
2023/06/04 10:48:04;;;;;;;1.42;0.52;;;22.60;99.90;;;;;;4961894;28;20042;-35
2023/06/04 10:50:31;;;;;;;2.13;0.52;;;22.60;99.90;;;;;;4961416;28;20078;-35
2023/06/04 10:52:58;;;;;;;0.90;0.40;;;22.70;99.90;;;;;;4959424;28;20105;-35
2023/06/04 10:55:24;;;;;;;2.65;0.60;;;22.70;99.90;;;;;;4958446;28;20089;-35
2023/06/04 10:57:58;;;;;;;1.30;0.43;;;22.80;99.90;;;;;;4963528;28;20074;-35
2023/06/04 11:00:40;;;;;;;2.25;0.60;;;23.00;99.90;;;;;;4959159;28;20074;-35
2023/06/04 11:03:09;;;;;;;1.95;0.50;;;23.10;99.90;;;;;;4961950;28;20737;-35
2023/06/04 11:05:42;;;;;;;2.10;0.65;;;23.20;99.90;;;;;;4960313;28;20125;-35
2023/06/04 11:08:13;;;;;;;1.88;0.68;;;23.50;99.90;;;;;;4959247;28;20050;-35
2023/06/04 11:10:41;;;;;;;1.83;0.52;;;23.60;99.90;;;;;;4959519;28;20046;-35
2023/06/04 11:13:07;;;;;;;3.50;0.80;;;23.70;99.90;;;;;;4941586;28;20087;-35
2023/06/04 11:15:42;;;;;;;2.30;0.65;;;23.70;99.90;;;;;;4957416;28;20339;-35
2023/06/04 11:18:13;;;;;;;2.15;0.80;;;23.60;99.90;;;;;;4964229;28;20532;-35
2023/06/04 11:20:38;;;;;;;1.60;0.52;;;23.50;99.90;;;;;;4962853;28;20054;-35
2023/06/04 11:23:05;;;;;;;3.72;0.75;;;23.50;99.90;;;;;;4966513;28;20473;-35
2023/06/04 11:25:32;;;;;;;2.10;0.70;;;23.50;99.90;;;;;;4937877;28;20051;-35
2023/06/04 11:27:59;;;;;;;3.20;0.43;;;23.70;99.90;;;;;;4956717;28;20074;-35
2023/06/04 11:30:26;;;;;;;3.47;0.60;;;23.80;99.90;;;;;;4953839;28;20066;-35
2023/06/04 11:33:01;;;;;;;2.58;0.80;;;23.90;99.90;;;;;;4957800;28;20482;-35
2023/06/04 11:35:26;;;;;;;2.22;0.73;;;24.00;99.90;;;;;;4956416;28;20575;-35
2023/06/04 11:37:57;;;;;;;3.83;0.63;;;23.80;99.90;;;;;;4960743;28;20058;-35
2023/06/04 11:40:23;;;;;;;5.93;0.80;;;23.80;99.90;;;;;;4964421;28;20050;-35
2023/06/04 11:42:49;;;;;;;3.35;0.70;;;23.80;99.90;;;;;;4954964;28;20054;-35
2023/06/04 11:45:17;;;;;;;1.55;0.60;;;24.00;99.90;;;;;;4964438;28;20181;-35
2023/06/04 11:48:03;;;;;;;2.00;0.60;;;24.20;99.90;;;;;;4960533;28;20499;-35
2023/06/04 11:50:29;;;;;;;2.00;0.68;;;24.40;99.90;;;;;;4961917;28;20055;-35
2023/06/04 11:52:54;;;;;;;2.03;0.80;;;24.60;99.90;;;;;;4964143;28;20070;-35
2023/06/04 11:55:21;;;;;;;2.65;0.50;;;24.60;99.90;;;;;;4959651;28;20077;-36
2023/06/04 11:57:47;;;;;;;2.35;0.60;;;24.70;99.90;;;;;;4960696;28;20066;-35
2023/06/04 12:00:14;;;;;;;2.33;0.65;;;24.80;99.90;;;;;;4957614;28;20657;-36
2023/06/04 12:02:50;;;;;;;2.67;0.80;;;24.80;99.90;;;;;;4961477;28;20561;-35
2023/06/04 12:05:20;;;;;;;1.92;0.50;;;24.80;99.90;;;;;;4959085;28;20511;-35
2023/06/04 12:07:51;;;;;;;1.75;0.47;;;24.70;99.90;;;;;;4960052;28;20194;-35
2023/06/04 12:10:18;;;;;;;4.57;0.70;;;24.80;99.90;;;;;;4952454;28;20062;-35
2023/06/04 12:12:44;;;;;;;3.05;0.80;;;24.80;99.90;;;;;;4957341;28;20050;-35
2023/06/04 12:15:11;;;;;;;1.88;0.73;;;24.90;99.90;;;;;;4956607;28;20497;-35
2023/06/04 12:17:37;;;;;;;2.65;0.50;;;24.90;99.90;;;;;;4953170;28;20063;-35
2023/06/04 12:20:06;;;;;;;2.60;0.70;;;24.80;99.90;;;;;;4953925;28;20078;-35
2023/06/04 12:22:32;;;;;;;2.03;0.75;;;24.90;99.90;;;;;;4946030;28;20055;-36
2023/06/04 12:25:00;;;;;;;3.88;0.80;;;24.80;99.90;;;;;;4952404;28;20097;-36
2023/06/04 12:27:26;;;;;;;1.73;0.50;;;24.90;99.90;;;;;;4953933;28;20050;-36
2023/06/04 12:30:02;;;;;;;1.75;0.55;;;25.10;99.90;;;;;;4954572;28;20070;-36
2023/06/04 12:32:28;;;;;;;2.92;0.60;;;25.20;99.90;;;;;;4967144;28;20106;-36
2023/06/04 12:34:54;;;;;;;1.63;0.60;;;25.30;99.90;;;;;;4939493;28;20065;-36
2023/06/04 12:37:21;;;;;;;5.97;0.90;;;25.30;99.90;;;;;;4954077;28;20047;-36
2023/06/04 12:39:47;;;;;;;4.88;0.70;;;25.30;99.90;;;;;;4959847;28;20108;-36
2023/06/04 12:42:12;;;;;;;1.35;0.63;;;25.30;99.90;;;;;;4964193;28;22417;-36
2023/06/04 12:44:39;;;;;;;3.50;0.77;;;25.10;99.90;;;;;;4938028;28;20546;-36
2023/06/04 12:47:06;;;;;;;2.00;0.70;;;25.20;99.90;;;;;;4954956;28;20085;-36
2023/06/04 12:49:31;;;;;;;3.00;0.68;;;25.50;99.90;;;;;;4961405;28;20520;-35